Time;durP1;ratioP1;P1;durP2;ratioP2;P2;SDS_P1;SDS_P2;PMS_P1;PMS_P2;Temp;Humidity;BMP_temperature;BMP_pressure;BME280_temperature;BME280_humidity;BME280_pressure;Samples;Min_cycle;Max_cycle;Signal;HPM_P1;HPM_P2
2021/07/06 07:11:52;;;;;;;2.58;0.90;;;;;;;;;;13064082;22;20011;-84
2021/07/06 07:16:53;;;;;;;1.67;1.00;;;;;;;;;;13041304;22;20145;-85
2021/07/06 07:21:54;;;;;;;1.17;0.70;;;;;;;;;;13045705;22;20003;-84
2021/07/06 07:26:56;;;;;;;2.38;0.90;;;;;;;;;;13081514;22;20006;-84
2021/07/06 07:32:05;;;;;;;1.88;0.75;;;;;;;;;;13072764;22;20046;-83
2021/07/06 07:37:08;;;;;;;1.63;0.60;;;;;;;;;;13101352;22;20000;-82
2021/07/06 07:42:15;;;;;;;1.13;0.85;;;;;;;;;;13094587;22;20244;-83
2021/07/06 07:47:20;;;;;;;4.03;1.27;;;;;;;;;;13056662;22;20480;-83
2021/07/06 07:52:25;;;;;;;3.58;1.00;;;;;;;;;;13061038;22;20018;-84
2021/07/06 07:57:27;;;;;;;2.15;1.10;;;;;;;;;;13066566;22;20007;-83
2021/07/06 08:02:28;;;;;;;1.45;0.90;;;;;;;;;;12980564;22;20023;-85
2021/07/06 08:07:30;;;;;;;2.83;1.10;;;;;;;;;;12978191;22;20043;-87
2021/07/06 08:12:32;;;;;;;4.07;0.90;;;;;;;;;;12980469;22;20030;-84
2021/07/06 08:17:33;;;;;;;2.00;1.20;;;;;;;;;;12975733;22;20000;-86
2021/07/06 08:22:34;;;;;;;2.55;1.00;;;;;;;;;;12981141;22;20004;-85
2021/07/06 08:27:35;;;;;;;1.45;1.05;;;;;;;;;;12983959;22;20038;-85
2021/07/06 08:32:36;;;;;;;5.53;1.10;;;;;;;;;;12985835;22;20008;-85
2021/07/06 08:37:37;;;;;;;2.70;1.20;;;;;;;;;;13013637;22;20031;-84
2021/07/06 08:42:39;;;;;;;1.58;1.17;;;;;;;;;;12988688;22;20486;-85
2021/07/06 08:47:43;;;;;;;2.63;1.02;;;;;;;;;;13024818;22;20016;-84
2021/07/06 08:52:45;;;;;;;2.22;1.20;;;;;;;;;;13025676;22;20034;-84
2021/07/06 08:57:46;;;;;;;3.58;1.25;;;;;;;;;;12997011;22;20042;-85
2021/07/06 09:02:57;;;;;;;3.05;1.30;;;;;;;;;;12996626;22;20015;-84
2021/07/06 09:07:58;;;;;;;2.72;1.08;;;;;;;;;;12982953;22;20014;-84
2021/07/06 09:13:00;;;;;;;4.32;1.60;;;;;;;;;;12972271;22;20293;-84
2021/07/06 09:18:15;;;;;;;2.55;1.30;;;;;;;;;;12975998;22;20087;-85
2021/07/06 09:23:22;;;;;;;2.97;1.50;;;;;;;;;;12970438;22;20007;-84
2021/07/06 09:28:24;;;;;;;2.60;1.40;;;;;;;;;;12969254;22;20239;-82
2021/07/06 09:33:29;;;;;;;2.72;1.55;;;;;;;;;;12970224;22;20506;-80
2021/07/06 09:38:30;;;;;;;3.40;1.30;;;;;;;;;;12995266;22;20523;-84
2021/07/06 09:43:31;;;;;;;6.60;2.25;;;;;;;;;;12968012;22;20022;-84
2021/07/06 09:48:35;;;;;;;2.88;1.63;;;;;;;;;;12993840;22;20415;-84
2021/07/06 09:53:36;;;;;;;2.40;1.50;;;;;;;;;;12966373;22;20008;-81
2021/07/06 09:58:49;;;;;;;2.80;1.48;;;;;;;;;;12966788;22;20027;-80
2021/07/06 10:03:52;;;;;;;3.70;1.40;;;;;;;;;;12964857;22;20232;-82
2021/07/06 10:08:53;;;;;;;2.10;1.10;;;;;;;;;;12993159;22;20000;-79
2021/07/06 10:13:56;;;;;;;3.60;1.02;;;;;;;;;;12965702;22;20053;-82
2021/07/06 10:18:57;;;;;;;3.50;1.10;;;;;;;;;;12965385;22;20006;-82
2021/07/06 10:23:59;;;;;;;3.05;1.05;;;;;;;;;;12965788;22;20011;-79
2021/07/06 10:29:00;;;;;;;1.35;1.02;;;;;;;;;;12962820;22;20008;-80
2021/07/06 10:34:18;;;;;;;2.35;1.10;;;;;;;;;;12963259;22;20004;-81
2021/07/06 10:39:39;;;;;;;1.98;1.13;;;;;;;;;;12969493;22;20007;-80
2021/07/06 10:44:42;;;;;;;2.17;1.38;;;;;;;;;;12968038;22;20007;-81
2021/07/06 10:49:43;;;;;;;2.08;1.80;;;;;;;;;;12970305;22;20010;-79
2021/07/06 10:54:43;;;;;;;3.25;1.23;;;;;;;;;;12970533;22;20396;-78
2021/07/06 10:59:51;;;;;;;1.67;1.00;;;;;;;;;;12969554;22;20016;-78
2021/07/06 11:04:56;;;;;;;2.05;1.17;;;;;;;;;;12969307;22;20026;-81
2021/07/06 11:09:57;;;;;;;3.42;1.58;;;;;;;;;;12968473;22;20462;-80
2021/07/06 11:14:59;;;;;;;2.03;1.00;;;;;;;;;;12997020;22;20002;-80
2021/07/06 11:20:02;;;;;;;3.22;1.20;;;;;;;;;;12969921;22;20379;-80
2021/07/06 11:25:17;;;;;;;4.80;1.20;;;;;;;;;;12972036;22;20003;-80
2021/07/06 11:30:25;;;;;;;1.92;1.10;;;;;;;;;;12973469;22;20080;-81
2021/07/06 11:35:26;;;;;;;2.53;1.10;;;;;;;;;;12975626;22;20008;-81
2021/07/06 11:40:27;;;;;;;3.97;0.93;;;;;;;;;;12975629;22;20066;-82
2021/07/06 11:45:28;;;;;;;2.60;1.30;;;;;;;;;;12974326;22;20056;-81
2021/07/06 11:50:30;;;;;;;1.77;0.90;;;;;;;;;;12975311;22;20010;-82
2021/07/06 11:55:32;;;;;;;1.10;0.60;;;;;;;;;;12974509;22;20000;-82
2021/07/06 12:00:34;;;;;;;3.00;2.03;;;;;;;;;;13001040;22;20046;-81
2021/07/06 12:05:35;;;;;;;2.10;0.90;;;;;;;;;;13000230;22;20000;-80
2021/07/06 12:10:50;;;;;;;1.88;0.90;;;;;;;;;;12999890;22;20388;-78
2021/07/06 12:15:52;;;;;;;1.88;0.88;;;;;;;;;;12970486;22;20054;-80
2021/07/06 12:21:08;;;;;;;2.53;0.80;;;;;;;;;;12971452;22;20003;-81
2021/07/06 12:26:09;;;;;;;3.35;0.80;;;;;;;;;;12971051;22;20014;-81
2021/07/06 12:31:18;;;;;;;3.00;1.20;;;;;;;;;;12970124;22;20031;-81
2021/07/06 12:36:28;;;;;;;5.80;1.40;;;;;;;;;;12972161;22;20047;-81
2021/07/06 12:41:30;;;;;;;2.33;1.10;;;;;;;;;;13001045;22;20079;-84
2021/07/06 12:46:36;;;;;;;2.42;0.90;;;;;;;;;;12974358;22;20027;-87
2021/07/06 12:51:37;;;;;;;3.42;1.20;;;;;;;;;;12969766;22;20012;-83
2021/07/06 12:56:38;;;;;;;3.45;1.45;;;;;;;;;;12974010;22;20028;-84
2021/07/06 13:01:39;;;;;;;2.75;1.13;;;;;;;;;;12973910;22;20011;-84
2021/07/06 13:06:40;;;;;;;2.08;1.08;;;;;;;;;;12974854;22;20004;-83
2021/07/06 13:11:42;;;;;;;3.70;1.20;;;;;;;;;;12978257;22;20010;-84
2021/07/06 13:16:43;;;;;;;2.78;0.93;;;;;;;;;;12978165;22;20022;-84
2021/07/06 13:21:44;;;;;;;2.97;1.00;;;;;;;;;;12974890;22;20471;-84
2021/07/06 13:26:45;;;;;;;3.47;0.80;;;;;;;;;;12970967;22;20014;-85
2021/07/06 13:31:46;;;;;;;4.13;1.13;;;;;;;;;;12978732;22;20082;-84
2021/07/06 13:36:47;;;;;;;1.42;0.75;;;;;;;;;;12978825;22;20000;-83
2021/07/06 13:41:48;;;;;;;3.50;1.30;;;;;;;;;;12981018;22;20039;-84
2021/07/06 13:46:50;;;;;;;3.45;0.85;;;;;;;;;;12984252;22;20083;-83
2021/07/06 13:51:57;;;;;;;2.38;1.00;;;;;;;;;;12985653;22;20006;-83
2021/07/06 13:57:06;;;;;;;4.82;0.93;;;;;;;;;;12985774;22;20439;-84
2021/07/06 14:02:08;;;;;;;5.15;1.90;;;;;;;;;;12982672;22;20058;-84
2021/07/06 14:07:09;;;;;;;2.72;1.10;;;;;;;;;;12980213;22;20000;-84
2021/07/06 14:12:15;;;;;;;4.25;1.02;;;;;;;;;;12979321;22;20010;-85
2021/07/06 14:17:16;;;;;;;3.97;1.13;;;;;;;;;;12980733;22;20022;-83
2021/07/06 14:22:17;;;;;;;5.18;1.83;;;;;;;;;;12978083;22;20046;-84
2021/07/06 14:27:18;;;;;;;3.72;1.05;;;;;;;;;;12976918;22;20015;-83
2021/07/06 14:32:19;;;;;;;5.05;1.15;;;;;;;;;;13002865;22;20010;-83
2021/07/06 14:37:21;;;;;;;4.13;1.02;;;;;;;;;;13003307;22;19996;-83
2021/07/06 14:42:22;;;;;;;5.40;1.50;;;;;;;;;;12976848;22;20008;-84
2021/07/06 14:47:28;;;;;;;2.85;1.13;;;;;;;;;;12979821;22;20010;-85
2021/07/06 14:52:32;;;;;;;3.72;0.90;;;;;;;;;;12982734;22;20022;-86
2021/07/06 14:57:33;;;;;;;5.40;1.30;;;;;;;;;;12980121;22;20034;-85
2021/07/06 15:02:34;;;;;;;2.92;1.20;;;;;;;;;;12984412;22;20008;-84
2021/07/06 15:07:39;;;;;;;4.68;1.52;;;;;;;;;;13005565;22;20069;-85
2021/07/06 15:12:40;;;;;;;4.93;1.80;;;;;;;;;;12975444;22;20019;-84
2021/07/06 15:17:41;;;;;;;5.47;1.50;;;;;;;;;;12975076;22;20043;-83
2021/07/06 15:22:43;;;;;;;2.75;1.58;;;;;;;;;;12971138;22;20007;-84
2021/07/06 15:27:45;;;;;;;3.65;1.10;;;;;;;;;;12971685;22;20000;-83
2021/07/06 15:32:47;;;;;;;6.22;2.03;;;;;;;;;;12971479;22;20324;-84
2021/07/06 15:37:54;;;;;;;5.60;1.48;;;;;;;;;;12970415;22;20087;-84
2021/07/06 15:42:56;;;;;;;8.20;1.88;;;;;;;;;;12969220;22;20003;-83
2021/07/06 15:47:58;;;;;;;3.78;1.80;;;;;;;;;;12969980;22;20089;-83
2021/07/06 15:52:59;;;;;;;6.65;1.95;;;;;;;;;;12973556;22;19995;-82
2021/07/06 15:58:00;;;;;;;5.55;2.33;;;;;;;;;;12975131;22;20344;-83
2021/07/06 16:03:01;;;;;;;6.47;1.60;;;;;;;;;;12974287;22;20011;-82
2021/07/06 16:08:02;;;;;;;5.35;1.60;;;;;;;;;;12969574;22;20328;-83
2021/07/06 16:13:03;;;;;;;7.05;2.38;;;;;;;;;;12969260;22;20004;-86
2021/07/06 16:18:08;;;;;;;4.30;2.35;;;;;;;;;;12996271;22;19996;-84
2021/07/06 16:34:46;;;;;;;6.00;1.67;;;;;;;;;;12995777;22;20012;-88
2021/07/06 16:40:26;;;;;;;4.50;1.83;;;;;;;;;;12941888;22;20012;-87
2021/07/06 17:58:01;;;;;;;2.35;1.10;;;;;;;;;;12623625;23;20010;-84
2021/07/06 18:08:23;;;;;;;3.85;1.02;;;;;;;;;;12933398;23;20016;-84
2021/07/06 18:13:24;;;;;;;3.95;1.30;;;;;;;;;;12931175;23;20000;-84
2021/07/06 18:18:25;;;;;;;3.58;1.30;;;;;;;;;;12931974;23;20437;-84
2021/07/06 18:23:30;;;;;;;4.25;1.33;;;;;;;;;;12937068;23;20008;-84
2021/07/06 18:28:31;;;;;;;4.10;1.40;;;;;;;;;;12933037;23;20007;-85
2021/07/06 18:33:32;;;;;;;9.20;4.40;;;;;;;;;;12933837;23;20054;-84
2021/07/06 18:38:33;;;;;;;3.25;1.15;;;;;;;;;;12934005;23;20005;-84
2021/07/06 18:43:34;;;;;;;2.90;1.10;;;;;;;;;;12930257;23;20043;-84
2021/07/06 18:48:37;;;;;;;3.78;1.10;;;;;;;;;;12929340;23;20055;-86
2021/07/06 18:53:38;;;;;;;3.30;1.20;;;;;;;;;;12931262;23;20008;-85
2021/07/06 18:58:39;;;;;;;2.92;1.10;;;;;;;;;;12937181;22;20028;-85
2021/07/06 19:03:43;;;;;;;3.83;1.20;;;;;;;;;;12936797;23;20012;-85
2021/07/06 19:08:44;;;;;;;2.33;1.10;;;;;;;;;;12913870;23;20353;-85
2021/07/06 19:13:48;;;;;;;4.38;1.30;;;;;;;;;;12937993;23;20007;-86
2021/07/06 19:18:49;;;;;;;3.67;1.13;;;;;;;;;;12957980;23;20050;-84
2021/07/06 19:34:01;;;;;;;3.05;1.35;;;;;;;;;;12959346;23;20008;-84
2021/07/06 19:39:07;;;;;;;4.85;1.25;;;;;;;;;;12937397;23;20399;-84
2021/07/06 19:44:09;;;;;;;2.42;0.93;;;;;;;;;;12934365;23;20004;-85
2021/07/06 19:49:11;;;;;;;2.20;1.10;;;;;;;;;;12937782;23;20008;-84
2021/07/06 19:54:12;;;;;;;3.03;0.90;;;;;;;;;;12938094;23;20005;-83
2021/07/06 20:00:05;;;;;;;4.05;1.10;;;;;;;;;;12941712;22;20118;-87
2021/07/06 20:11:34;;;;;;;4.32;1.30;;;;;;;;;;12717754;23;20014;-88
2021/07/06 20:17:16;;;;;;;2.80;1.10;;;;;;;;;;12638530;23;20007;-87
